Terminal Aerodrome Forecast
Issued by NWS St Louis, MO

Home | Current Version | Previous Version | Text Only | Print | Product List | Glossary On
Versions: 1 2 3 4 5 6 7 8 9 10 11 12 13 14 15
000
FTUS43 KLSX 311729
TAFCOU
TAF
KCOU 311729Z 3118/0118 14008KT P6SM SCT050 SCT120
     FM312300 15006KT P6SM VCTS BKN050CB
     FM010100 00000KT 6SM -SHRA VCTS BKN040CB
      TEMPO 0101/0104 3SM -TSRA
     FM010600 00000KT P6SM VCSH SCT040 BKN100
     FM011100 32006KT P6SM BKN150=

USA.gov is the U.S. government's official web portal to all federal, state and local government web resources and services.